createdAt,value
2023-04-09T00:00:00.741Z,75.54340452431994
2023-04-09T00:02:58.411Z,75.60896332577205
2023-04-09T00:05:55.847Z,75.46019288450712
2023-04-09T00:08:51.545Z,75.58311275879565
2023-04-09T00:11:47.029Z,76.41862873954322
2023-04-09T00:14:42.575Z,76.52359514761731
2023-04-09T00:17:38.146Z,74.7358662128639
2023-04-09T00:20:33.706Z,72.9130449366562
2023-04-09T00:23:29.247Z,72.29840856628655
2023-04-09T00:26:25.826Z,73.42033247196593
2023-04-09T00:29:21.376Z,73.09060434892938
2023-04-09T00:32:16.908Z,70.25122906677538
2023-04-09T00:35:12.471Z,70.11995072375737
2023-04-09T00:38:08.054Z,71.26769568847854
2023-04-09T00:41:05.609Z,72.14655520509861
2023-04-09T00:44:02.175Z,71.0140078927694
2023-04-09T00:46:58.751Z,70.40161119127644
2023-04-09T00:49:57.273Z,71.43957501672388
2023-04-09T00:52:53.777Z,70.85408030688497
2023-04-09T00:55:50.383Z,71.63903089692649
2023-04-09T00:58:45.951Z,70.64661517539024
2023-04-09T01:01:42.496Z,70.2440875286896
2023-04-09T01:04:39.055Z,71.09162521761465
2023-04-09T01:07:44.617Z,69.18405357870726
2023-04-09T01:10:50.266Z,70.48853997896724
2023-04-09T01:13:54.678Z,69.92749217165894
2023-04-09T01:16:53.447Z,69.19427752508585
2023-04-09T01:20:00.737Z,69.02647034752731
2023-04-09T01:23:10.263Z,69.65068426491038
2023-04-09T01:26:18.798Z,69.21712852828438
2023-04-09T01:29:16.384Z,68.34090456427971
2023-04-09T01:32:16.923Z,68.75961920806168
2023-04-09T01:35:14.477Z,71.34160995451509
2023-04-09T01:38:13.033Z,68.74495614179708
2023-04-09T01:41:11.562Z,68.68086138187762
2023-04-09T01:44:09.092Z,70.9932569015342
2023-04-09T01:47:05.712Z,72.28804744708857
2023-04-09T01:50:03.268Z,70.24137490163011
2023-04-09T01:53:00.810Z,69.51968382761274
2023-04-09T01:55:56.396Z,69.61425603237169
2023-04-09T01:58:52.288Z,69.12261356783279
2023-04-09T02:01:54.659Z,69.27157440942528
2023-04-09T02:04:58.015Z,69.61844470918022
2023-04-09T02:08:01.540Z,70.63964214546729
2023-04-09T02:11:00.069Z,70.9021668970296
2023-04-09T02:13:58.672Z,71.56249730704303
2023-04-09T02:16:56.222Z,72.46060545870873
2023-04-09T02:19:52.820Z,71.47946966976654
2023-04-09T02:22:48.334Z,71.60923158903456
2023-04-09T02:25:43.886Z,70.12085076039476
2023-04-09T02:28:39.450Z,70.03505546082128
2023-04-09T02:31:36.224Z,70.20443540854455
2023-04-09T02:34:31.558Z,72.08728376996345
2023-04-09T02:37:27.158Z,70.4466070560777
2023-04-09T02:40:22.680Z,70.00602258672916
2023-04-09T02:43:18.243Z,71.18463465639405
2023-04-09T02:46:13.930Z,71.79513438103608
2023-04-09T02:49:09.425Z,71.99840396060914
2023-04-09T02:52:05.902Z,72.80747099117991
2023-04-09T02:55:01.581Z,71.0110412193814
2023-04-09T02:57:57.068Z,73.6593382592093
2023-04-09T03:00:52.651Z,74.27110042151213
2023-04-09T03:03:48.271Z,74.61965392147339
2023-04-09T03:06:43.751Z,75.53091406104897
2023-04-09T03:09:39.318Z,72.69550677262536
2023-04-09T03:12:35.871Z,73.67650003485726
2023-04-09T03:15:31.388Z,72.2502592702544
2023-04-09T03:18:27.952Z,71.61683357703528
2023-04-09T03:21:23.527Z,70.76305063469866
2023-04-09T03:24:19.134Z,71.2824287826185
2023-04-09T03:30:21.213Z,71.37045786337906
2023-04-09T03:33:16.753Z,71.49092900909055
2023-04-09T03:36:12.341Z,70.35280328714283
2023-04-09T03:39:08.878Z,71.29309181769584
2023-04-09T03:42:04.455Z,70.02857975268368
2023-04-09T03:44:59.972Z,71.0275670888859
2023-04-09T03:47:57.782Z,71.17456203889432
2023-04-09T03:50:53.278Z,70.91439507106274
2023-04-09T03:53:48.698Z,68.93404364852177
2023-04-09T03:56:44.201Z,69.77901244420119
2023-04-09T03:59:39.768Z,70.33970484400919
2023-04-09T04:05:40.918Z,72.40568032701191
2023-04-09T04:08:36.484Z,73.59262818272366
2023-04-09T04:11:36.046Z,75.08687500610004
2023-04-09T04:14:31.555Z,76.82360296325476
2023-04-09T04:17:27.143Z,75.41267915974751
2023-04-09T04:20:22.875Z,72.26178141739841
2023-04-09T04:23:18.284Z,71.6549261015637
2023-04-09T04:26:13.833Z,73.19226582696591
2023-04-09T04:29:11.380Z,77.1524734852651
2023-04-09T04:32:07.042Z,79.7594066622054
2023-04-09T04:35:02.495Z,75.69399613751703
2023-04-09T04:37:58.075Z,72.64828207688036
2023-04-09T04:40:53.624Z,72.1512856861307
2023-04-09T04:46:54.700Z,74.8210200986087
2023-04-09T04:49:50.262Z,72.26573668281502
2023-04-09T04:52:45.808Z,69.5706940623464
2023-04-09T04:55:41.442Z,69.56473526231791
2023-04-09T04:58:36.954Z,71.70821375067194
2023-04-09T05:01:32.671Z,74.8620240356868
2023-04-09T05:04:28.060Z,75.57649616632868
2023-04-09T05:07:23.641Z,72.49162074145075
2023-04-09T05:10:19.177Z,71.73077733518072
2023-04-09T05:13:14.746Z,68.72922273388183
2023-04-09T05:16:16.376Z,70.30700548369295
2023-04-09T05:19:11.845Z,72.61571025540296
2023-04-09T05:25:16.031Z,70.27756116217864
2023-04-09T05:28:11.507Z,68.76284917339429
2023-04-09T05:34:12.737Z,68.205063698175
2023-04-09T05:37:08.207Z,67.62806756682758
2023-04-09T05:40:05.757Z,68.81916798442465
2023-04-09T05:43:02.332Z,67.52651699724318
2023-04-09T05:46:00.872Z,67.68688831547057
2023-04-09T05:48:56.412Z,69.10274974774009
2023-04-09T05:51:51.967Z,68.21487239694757
2023-04-09T05:54:47.556Z,68.8076973791416
2023-04-09T05:57:45.098Z,69.85081835180681
2023-04-09T06:00:41.711Z,69.65907455096735
2023-04-09T06:03:37.484Z,70.04871597374682
2023-04-09T06:06:34.767Z,70.93361154884147
2023-04-09T06:09:30.301Z,68.53981527256347
2023-04-09T06:12:25.908Z,69.21276709393413
2023-04-09T06:15:21.451Z,67.77745326605665
2023-04-09T06:18:18.101Z,68.95575253203408
2023-04-09T06:21:13.550Z,68.09640224167424
2023-04-09T06:24:09.147Z,67.42584806898076
2023-04-09T06:27:04.720Z,67.70814401002576
2023-04-09T06:30:01.247Z,66.15434931466748
2023-04-09T06:32:56.836Z,64.90162277740772
2023-04-09T06:35:52.381Z,67.62623449225129
2023-04-09T06:38:47.954Z,67.04277988405367
2023-04-09T06:41:44.454Z,68.15684848319269
2023-04-09T06:44:40.077Z,67.53413530134065
2023-04-09T06:47:35.663Z,67.18254927608993
2023-04-09T06:50:32.202Z,67.16607352191674
2023-04-09T06:53:30.802Z,66.95405312699633
2023-04-09T06:56:26.445Z,66.627229835716
2023-04-09T06:59:21.831Z,67.89945220660279
2023-04-09T07:02:19.548Z,64.91135313093415
2023-04-09T07:05:14.959Z,65.45964124004296
2023-04-09T07:11:17.286Z,64.10262900052463
2023-04-09T07:14:12.636Z,63.525516787728456
2023-04-09T07:17:08.299Z,62.181043233954185
2023-04-09T07:20:04.762Z,64.23878900122244
2023-04-09T07:23:00.349Z,63.369807429028704
2023-04-09T07:25:56.862Z,62.97535774356375
2023-04-09T07:28:52.409Z,63.43917231182841
2023-04-09T07:31:48.029Z,64.64937865874079
2023-04-09T07:34:44.538Z,62.95733351482005
2023-04-09T07:37:41.112Z,62.42859028828935
2023-04-09T07:40:37.667Z,61.8360319404999
2023-04-09T07:43:33.221Z,61.47139911067428
2023-04-09T07:46:29.023Z,60.53797856920601
2023-04-09T07:49:24.353Z,59.72557229949134
2023-04-09T07:52:19.929Z,58.65685865519578
2023-04-09T07:55:17.382Z,60.582041986873364
2023-04-09T07:58:15.990Z,60.5035143075698
2023-04-09T08:01:12.554Z,61.06740675820715
2023-04-09T08:04:09.322Z,61.41126262253412
2023-04-09T08:07:04.676Z,60.01171059089886
2023-04-09T08:10:00.274Z,58.72764439526378
2023-04-09T08:16:01.402Z,58.546970483000806
2023-04-09T08:18:56.900Z,59.7750548803322
2023-04-09T08:21:52.470Z,57.60997786017783
2023-04-09T08:24:52.047Z,56.55993171792749
2023-04-09T08:27:47.585Z,57.44883356778465
2023-04-09T08:30:44.165Z,55.51365734587306
2023-04-09T08:33:40.720Z,55.80779738468735
2023-04-09T08:36:40.335Z,54.30045083267303
2023-04-09T08:39:36.821Z,52.72904019070823
2023-04-09T08:42:34.368Z,52.660762985435944
2023-04-09T08:45:29.986Z,54.344221102466925
2023-04-09T08:48:26.569Z,54.449577746259514
2023-04-09T08:51:24.163Z,54.03811568319791
2023-04-09T08:54:23.606Z,52.77162596161611
2023-04-09T08:57:19.182Z,54.056543886902325
2023-04-09T09:00:14.679Z,54.62830990341839
2023-04-09T09:03:13.435Z,53.707309109299324
2023-04-09T09:06:17.812Z,52.54017658948499
2023-04-09T09:09:14.388Z,51.64476469336255
2023-04-09T09:12:11.944Z,52.91002520934707
2023-04-09T09:15:12.504Z,53.09449681105261
2023-04-09T09:18:15.060Z,51.91370628253767
2023-04-09T09:21:12.582Z,51.79032739468153
2023-04-09T09:24:13.311Z,52.37226353856059
2023-04-09T09:27:09.674Z,51.5488935592142
2023-04-09T09:30:16.215Z,51.23848807410641
2023-04-09T09:33:13.768Z,50.46227200651199
2023-04-09T09:36:29.460Z,51.70511022867252
2023-04-09T09:39:30.819Z,52.598232524954696
2023-04-09T09:42:35.357Z,51.19650172172981
2023-04-09T09:45:31.928Z,50.428283080960675
2023-04-09T09:48:28.499Z,48.55054934183349
2023-04-09T09:51:27.054Z,50.325621454859345
2023-04-09T09:54:25.652Z,50.44131167078029
2023-04-09T09:57:26.211Z,50.58687515672069
2023-04-09T10:00:26.716Z,49.83186987098383
2023-04-09T10:03:27.302Z,48.52587104969479
2023-04-09T10:06:25.801Z,50.65039734103747
2023-04-09T10:09:23.357Z,50.22456035018828
2023-04-09T10:12:22.926Z,49.91521065940347
2023-04-09T10:15:18.492Z,48.98190346950115
2023-04-09T10:18:15.049Z,49.661197487282934
2023-04-09T10:21:17.562Z,49.36997733853097
2023-04-09T10:24:16.146Z,48.70315267117144
2023-04-09T10:27:16.011Z,49.43319728451306
2023-04-09T10:30:20.213Z,50.356731387480835
2023-04-09T10:33:16.763Z,55.964097836285084
2023-04-09T10:36:13.398Z,51.482665400999295
2023-04-09T10:39:11.862Z,52.87967197502188
2023-04-09T10:42:11.402Z,52.56564060111352
2023-04-09T10:45:10.986Z,53.588516338221375
2023-04-09T10:48:11.564Z,52.84780414782628
2023-04-09T10:51:13.038Z,51.443941780662904
2023-04-09T10:54:16.637Z,52.43113685772432
2023-04-09T10:57:13.205Z,52.10043532195904
2023-04-09T11:00:10.750Z,52.15090851106013
2023-04-09T11:03:21.535Z,53.57394824785599
2023-04-09T11:06:21.764Z,52.32541184690787
2023-04-09T11:09:18.327Z,51.55285668388998
2023-04-09T11:12:13.950Z,51.41547582692081
2023-04-09T11:15:14.465Z,51.72404810354022
2023-04-09T11:18:14.006Z,52.65035905899618
2023-04-09T11:21:13.568Z,52.1903923719581
2023-04-09T11:24:09.124Z,51.49413551564918
2023-04-09T11:27:07.698Z,51.205453927421665
2023-04-09T11:30:07.264Z,51.14332332940024
2023-04-09T11:33:02.840Z,50.05285016002327
2023-04-09T11:35:58.418Z,52.83159280333375
2023-04-09T11:38:54.950Z,52.311151943818366
2023-04-09T11:41:50.435Z,51.94983807201836
2023-04-09T11:44:46.081Z,51.537588297694676
2023-04-09T11:47:42.665Z,50.35392571388566
2023-04-09T11:50:39.174Z,49.773475545331074
2023-04-09T11:53:40.720Z,49.09783693902064
2023-04-09T11:56:36.325Z,49.09112012090274
2023-04-09T11:59:32.864Z,49.70217863885471
2023-04-09T12:02:30.546Z,51.03390605535213
2023-04-09T12:05:27.978Z,49.56332382647683
2023-04-09T12:08:24.508Z,51.1929409060135
2023-04-09T12:11:21.065Z,50.57827779539791
2023-04-09T12:14:18.600Z,52.49741903071063
2023-04-09T12:17:15.143Z,53.0961683926119
2023-04-09T12:20:11.718Z,53.61731696840672
2023-04-09T12:23:13.285Z,53.64824352908236
2023-04-09T12:26:09.807Z,53.940335588576104
2023-04-09T12:29:05.416Z,53.356029438653664
2023-04-09T12:32:00.988Z,54.46595009596313
2023-04-09T12:34:58.475Z,52.68215972706974
2023-04-09T12:37:54.051Z,52.83366599841477
2023-04-09T12:40:50.615Z,51.73024488787437
2023-04-09T12:43:48.200Z,50.812093004277926
2023-04-09T12:46:44.759Z,49.00218185280078
2023-04-09T12:49:45.309Z,49.44191428139469
2023-04-09T12:52:40.853Z,47.90013580616541
2023-04-09T12:55:37.448Z,48.105705214687354
2023-04-09T12:58:34.986Z,49.10923039911466
2023-04-09T13:01:30.550Z,48.1836116054895
2023-04-09T13:04:26.172Z,48.078151207342025
2023-04-09T13:07:22.730Z,45.438002684660766
2023-04-09T13:10:19.248Z,43.482015930895145
2023-04-09T13:13:14.755Z,42.20905194658747
2023-04-09T13:16:10.371Z,41.5923979599635
2023-04-09T13:19:07.885Z,40.2331777002703
2023-04-09T13:22:06.447Z,42.95081983207632
2023-04-09T13:25:01.999Z,40.95457469023067
2023-04-09T13:27:57.614Z,39.45331046962908
2023-04-09T13:30:53.276Z,40.775886379917324
2023-04-09T13:33:49.706Z,43.68456808061469
2023-04-09T13:36:45.216Z,40.546196640223926
2023-04-09T13:39:40.825Z,42.21487911383551
2023-04-09T13:42:37.395Z,41.90519616774143
2023-04-09T13:45:33.935Z,38.86327720193423
2023-04-09T13:48:29.477Z,39.71735250450426
2023-04-09T13:51:27.037Z,39.25704535559188
2023-04-09T13:54:24.602Z,35.69221135024888
2023-04-09T13:57:22.174Z,31.20100160752818
2023-04-09T14:00:19.705Z,34.760219163102086
2023-04-09T14:03:16.622Z,38.266950606254504
2023-04-09T14:06:12.802Z,33.04878817858653
2023-04-09T14:09:08.390Z,37.19166794201216
2023-04-09T14:12:03.964Z,36.06672718588178
2023-04-09T14:14:59.499Z,37.71496005411935
2023-04-09T14:17:56.113Z,37.29804713151668
2023-04-09T14:20:52.672Z,39.29554121110389
2023-04-09T14:23:48.206Z,39.189198274159935
2023-04-09T14:29:51.314Z,34.74512520212401
2023-04-09T14:32:46.887Z,36.51930542296502
2023-04-09T14:35:43.439Z,39.356944475008774
2023-04-09T14:38:38.977Z,39.76044889416668
2023-04-09T14:41:36.639Z,34.77572054875856
2023-04-09T14:44:33.111Z,31.647412299530668
2023-04-09T14:47:30.658Z,30.82197188115783
2023-04-09T14:50:27.225Z,33.09285831476877
2023-04-09T14:53:22.773Z,29.001514931005755
2023-04-09T14:56:18.313Z,29.6913573704586
2023-04-09T14:59:13.953Z,30.073766526536513
2023-04-09T15:02:10.521Z,30.180467795038528
2023-04-09T15:05:07.012Z,28.060953299605426
2023-04-09T15:08:02.550Z,28.638569270264355
2023-04-09T15:14:03.726Z,37.92486582618925
2023-04-09T15:17:00.209Z,38.12769775587058
2023-04-09T15:19:58.919Z,40.12414306853064
2023-04-09T15:22:54.305Z,38.18358230237767
2023-04-09T15:25:50.888Z,36.87244280919887
2023-04-09T15:28:46.403Z,40.259483421947614
2023-04-09T15:31:42.127Z,40.94885587133464
2023-04-09T15:34:38.616Z,42.202129711253704
2023-04-09T15:37:34.128Z,43.330542510744635
2023-04-09T15:40:30.713Z,44.00196102508492
2023-04-09T15:43:27.235Z,42.10264082758918
2023-04-09T15:46:22.876Z,43.05555685834078
2023-04-09T15:49:19.400Z,43.31669056767565
2023-04-09T15:52:14.975Z,44.56154494361304
2023-04-09T15:55:11.530Z,42.80897018166102
2023-04-09T15:58:07.025Z,42.98768025492729
2023-04-09T16:01:06.688Z,43.64393963008604
2023-04-09T16:04:09.190Z,43.67094438672155
2023-04-09T16:07:04.720Z,44.54025343420718
2023-04-09T16:10:01.276Z,46.60283539682064
2023-04-09T16:12:56.859Z,49.1421819341296
2023-04-09T16:15:52.356Z,47.8603859798887
2023-04-09T16:18:48.967Z,48.420230877215026
2023-04-09T16:21:45.602Z,50.12951649257183
2023-04-09T16:24:43.084Z,48.78355318782476
2023-04-09T16:27:38.589Z,48.012622679482924
2023-04-09T16:30:34.196Z,44.325979337121716
2023-04-09T16:33:29.739Z,39.53183248849017
2023-04-09T16:36:26.341Z,37.57887729409579
2023-04-09T16:39:21.888Z,37.406565917816394
2023-04-09T16:42:18.419Z,36.72395817577185
2023-04-09T16:45:14.073Z,37.69827891200291
2023-04-09T16:48:11.637Z,38.969919722684054
2023-04-09T16:51:08.106Z,40.86682777408452
2023-04-09T16:54:03.639Z,43.318080698290345
2023-04-09T16:56:59.228Z,43.722446478562034
2023-04-09T16:59:59.281Z,47.06574193814556
2023-04-09T17:02:57.576Z,47.28507017848398
2023-04-09T17:05:53.898Z,46.30120587254678
2023-04-09T17:08:53.653Z,47.11282007445737
2023-04-09T17:11:48.993Z,48.13999053480829
2023-04-09T17:17:53.199Z,46.75085217970361
2023-04-09T17:20:48.650Z,48.42642498764804
2023-04-09T17:23:45.208Z,49.05708552043407
2023-04-09T17:26:44.749Z,49.62404024508074
2023-04-09T17:29:42.307Z,50.95082555723242
2023-04-09T17:32:38.907Z,51.672648681857574
2023-04-09T17:35:35.492Z,52.98450876655578
2023-04-09T17:38:32.012Z,50.96484469103607
2023-04-09T17:41:28.556Z,54.01822045757171
2023-04-09T17:44:25.168Z,53.960801265328165
2023-04-09T17:47:21.739Z,52.0209235347322
2023-04-09T17:50:18.227Z,53.41605467028579
2023-04-09T17:53:20.768Z,51.78477786681798
2023-04-09T17:56:18.378Z,54.420036051312636
2023-04-09T17:59:14.907Z,52.101260694269804
2023-04-09T18:02:11.599Z,54.13271708232773
2023-04-09T18:05:08.212Z,54.90861346281555
2023-04-09T18:08:05.551Z,53.61072886348797
2023-04-09T18:11:13.356Z,54.438189990985066
2023-04-09T18:14:08.683Z,55.62973641638222
2023-04-09T18:17:04.223Z,57.7076002930149
2023-04-09T18:19:59.765Z,53.255419391213024
2023-04-09T18:22:55.297Z,55.934517206583706
2023-04-09T18:25:50.926Z,53.77035973251579
2023-04-09T18:28:47.484Z,55.886924857691376
2023-04-09T18:31:43.126Z,55.521811665757006
2023-04-09T18:34:38.537Z,54.18329406940107
2023-04-09T18:37:34.162Z,54.41078956102207
2023-04-09T18:40:29.721Z,55.12548749968205
2023-04-09T18:43:26.276Z,55.24905609265472
2023-04-09T18:46:22.954Z,57.37870782510599
2023-04-09T18:49:18.440Z,54.5380575179893
2023-04-09T18:52:18.957Z,54.6328491219915
2023-04-09T18:55:16.495Z,54.60180745627603
2023-04-09T18:58:15.092Z,54.31812258137008
2023-04-09T19:01:11.641Z,55.54763438681141
2023-04-09T19:04:07.266Z,55.443361839875095
2023-04-09T19:07:05.740Z,57.696386729725425
2023-04-09T19:10:01.312Z,59.40560524227038
2023-04-09T19:12:58.828Z,60.00647006876925
2023-04-09T19:15:58.493Z,62.298084640680244
2023-04-09T19:18:54.193Z,59.233794305842714
2023-04-09T19:21:50.507Z,57.593850188823126
2023-04-09T19:24:46.029Z,59.68895570369206
2023-04-09T19:27:43.636Z,59.51937494199023
2023-04-09T19:30:40.210Z,59.67254961130777
2023-04-09T19:33:35.740Z,59.87353712997534
2023-04-09T19:36:32.335Z,59.011631677270465
2023-04-09T19:39:27.901Z,61.36192498352164
2023-04-09T19:42:29.435Z,61.72711479980949
2023-04-09T19:45:25.983Z,58.361439192090565
2023-04-09T19:48:21.563Z,59.20256789085729
2023-04-09T19:51:20.110Z,58.05613367417549
2023-04-09T19:54:16.591Z,57.96204486074228
2023-04-09T19:57:16.239Z,57.79816153928981
2023-04-09T20:00:14.775Z,58.94628506498856
2023-04-09T20:03:12.531Z,62.22368771431473
2023-04-09T20:06:10.107Z,61.9618709377913
2023-04-09T20:09:08.431Z,59.45218095798797
2023-04-09T20:12:06.030Z,64.37926343205696
2023-04-09T20:15:13.106Z,65.06772133518939
2023-04-09T20:21:20.599Z,61.77497335099151
2023-04-09T20:24:22.558Z,60.097656987857654
2023-04-09T20:27:22.664Z,62.377858670225855
2023-04-09T20:30:24.207Z,61.51822153050622
2023-04-09T20:33:24.752Z,65.47686859949476
2023-04-09T20:36:26.367Z,68.14006293265372
2023-04-09T20:39:26.910Z,65.49088816750242
2023-04-09T20:42:36.331Z,64.3432368848636
2023-04-09T20:45:36.992Z,61.77965292960137
2023-04-09T20:48:38.466Z,62.16986491226442
2023-04-09T20:51:41.073Z,61.70055189365445
2023-04-09T20:54:42.593Z,64.40400809803215
2023-04-09T20:57:43.257Z,65.01245921323331
2023-04-09T21:00:43.698Z,64.5630032039936
2023-04-09T21:03:49.318Z,67.69927423849349
2023-04-09T21:06:49.753Z,67.46392033161602
2023-04-09T21:09:56.359Z,66.2629438209248
2023-04-09T21:13:03.827Z,67.7800825104321
2023-04-09T21:16:06.390Z,66.7879343586871
2023-04-09T21:19:07.049Z,66.52801464396265
2023-04-09T21:22:08.466Z,68.49069724137308
2023-04-09T21:25:09.228Z,67.01350544094201
2023-04-09T21:28:11.555Z,66.99605390109375
2023-04-09T21:31:12.295Z,65.58228970155152
2023-04-09T21:34:12.668Z,67.86496773696358
2023-04-09T21:37:13.211Z,68.2825580996969
2023-04-09T21:40:20.751Z,65.63442775223449
2023-04-09T21:43:21.281Z,69.52658689213636
2023-04-09T21:49:33.387Z,70.273406342736
2023-04-09T21:52:33.930Z,68.33731530417461
2023-04-09T21:55:36.522Z,65.80081009875177
2023-04-09T21:58:41.993Z,67.25350710991214
2023-04-09T22:01:42.575Z,66.78721982545042
2023-04-09T22:04:43.150Z,67.07849351019345
2023-04-09T22:07:48.662Z,63.72189527724489
2023-04-09T22:10:50.180Z,63.365676662641675
2023-04-09T22:13:50.756Z,66.73692581023423
2023-04-09T22:16:51.231Z,65.09819240575919
2023-04-09T22:19:51.804Z,66.27136859751295
2023-04-09T22:22:53.395Z,64.49973476976395
2023-04-09T22:25:48.978Z,67.4153901983442
2023-04-09T22:28:44.453Z,66.23828496560964
2023-04-09T22:31:40.257Z,66.21797657764743
2023-04-09T22:34:35.628Z,64.9524605935762
2023-04-09T22:40:41.653Z,64.88611854555269
2023-04-09T22:43:37.267Z,64.80193918348972
2023-04-09T22:46:34.935Z,66.62742592319337
2023-04-09T22:49:30.377Z,66.291320773171
2023-04-09T22:52:25.902Z,65.56137320465616
2023-04-09T22:55:23.496Z,66.81116665429992
2023-04-09T22:58:19.131Z,64.89606093467272
2023-04-09T23:01:15.630Z,64.11660637560483
2023-04-09T23:04:11.227Z,62.749903449570105
2023-04-09T23:07:08.719Z,65.96358684971258
2023-04-09T23:10:04.321Z,65.40004298888273
2023-04-09T23:12:59.866Z,65.18970010112824
2023-04-09T23:15:55.425Z,66.11864020309663
2023-04-09T23:18:51.229Z,65.7359450603172
2023-04-09T23:21:47.522Z,64.79347581116343
2023-04-09T23:24:43.077Z,65.79247515845168
2023-04-09T23:27:38.643Z,63.893896580226695
2023-04-09T23:30:34.255Z,64.60793243821725
2023-04-09T23:33:30.747Z,66.20531366666998
2023-04-09T23:36:27.323Z,65.8287377498337
2023-04-09T23:39:22.871Z,66.41817520145007
2023-04-09T23:42:19.460Z,64.32831018210076
2023-04-09T23:45:15.996Z,64.62264023022506
2023-04-09T23:48:12.852Z,65.62203283780478
2023-04-09T23:51:16.074Z,66.06241140753275
2023-04-09T23:54:11.680Z,63.96013930237119
2023-04-09T23:57:08.470Z,65.28972852761669
